Time;durP1;ratioP1;P1;durP2;ratioP2;P2;SDS_P1;SDS_P2;PMS_P1;PMS_P2;Temp;Humidity;BMP_temperature;BMP_pressure;BME280_temperature;BME280_humidity;BME280_pressure;Samples;Min_cycle;Max_cycle;Signal;HPM_P1;HPM_P2
2021/06/23 00:01:35;;;;;;;;;46.75;34.50;;;;;16.04;76.82;101582.16;4953726;28;46284;-76
2021/06/23 00:04:00;;;;;;;;;46.75;35.75;;;;;16.03;77.01;101580.44;4955793;28;45379;-77
2021/06/23 00:06:26;;;;;;;;;39.75;34.00;;;;;16.02;77.45;101584.00;4953286;28;45516;-77
2021/06/23 00:08:51;;;;;;;;;46.75;35.50;;;;;16.02;77.27;101584.00;4954074;28;45400;-77
2021/06/23 00:11:16;;;;;;;;;40.50;34.25;;;;;16.03;77.64;101582.25;4953399;28;45328;-77
2021/06/23 00:13:42;;;;;;;;;42.00;32.25;;;;;16.03;77.46;101583.09;4954024;28;45621;-77
2021/06/23 00:16:08;;;;;;;;;44.00;35.75;;;;;16.01;77.22;101582.28;4955139;28;45818;-77
2021/06/23 00:18:35;;;;;;;;;44.50;35.25;;;;;16.02;77.29;101580.50;4954067;28;45518;-76
2021/06/23 00:21:01;;;;;;;;;45.25;35.00;;;;;16.01;77.68;101581.44;4954846;28;47206;-77
2021/06/23 00:23:26;;;;;;;;;43.00;36.25;;;;;16.02;77.71;101586.66;4957250;28;45438;-77
2021/06/23 00:25:51;;;;;;;;;42.25;35.00;;;;;16.04;77.95;101584.81;4956139;28;45532;-77
2021/06/23 00:28:17;;;;;;;;;42.00;33.50;;;;;16.06;77.46;101584.72;4958940;28;45375;-77
2021/06/23 00:30:42;;;;;;;;;46.50;38.00;;;;;16.05;77.78;101580.34;4955491;28;46002;-75
2021/06/23 00:33:12;;;;;;;;;39.75;33.50;;;;;16.07;77.41;101586.41;4957215;28;45402;-77
2021/06/23 00:35:37;;;;;;;;;42.50;35.75;;;;;16.04;77.09;101579.50;4956819;28;45324;-77
2021/06/23 00:38:03;;;;;;;;;42.00;34.50;;;;;16.02;77.74;101578.69;4957235;28;45529;-77
2021/06/23 00:40:30;;;;;;;;;41.75;32.00;;;;;16.02;77.17;101584.00;4956152;28;46229;-77
2021/06/23 00:42:55;;;;;;;;;35.25;32.00;;;;;16.02;77.78;101591.09;4956284;28;45528;-77
2021/06/23 00:45:21;;;;;;;;;43.25;33.00;;;;;16.02;77.23;101588.44;4956884;28;45483;-77
2021/06/23 00:47:48;;;;;;;;;47.00;34.25;;;;;16.02;77.68;101588.44;4956750;28;45959;-77
2021/06/23 00:50:15;;;;;;;;;36.00;30.75;;;;;16.03;77.38;101585.75;4956976;28;47002;-77
2021/06/23 00:52:42;;;;;;;;;44.00;34.00;;;;;16.03;77.10;101592.84;4956728;28;45397;-77
2021/06/23 00:55:08;;;;;;;;;39.25;34.00;;;;;16.02;77.73;101589.31;4958675;28;45473;-77
2021/06/23 00:57:34;;;;;;;;;41.75;32.00;;;;;16.01;77.47;101590.25;4956300;28;45544;-76
2021/06/23 01:00:00;;;;;;;;;37.50;32.25;;;;;16.02;77.45;101601.72;4956274;28;46324;-76
2021/06/23 01:02:27;;;;;;;;;38.75;32.75;;;;;16.00;77.10;101600.94;4956691;28;45410;-77
2021/06/23 01:04:53;;;;;;;;;39.50;32.25;;;;;15.97;77.46;101593.13;4956626;28;45451;-77
2021/06/23 01:07:19;;;;;;;;;32.50;28.50;;;;;15.97;76.68;101606.38;4957418;28;45533;-76
2021/06/23 01:09:45;;;;;;;;;41.00;27.50;;;;;15.91;76.91;101607.56;4956010;28;47001;-77
2021/06/23 01:12:43;;;;;;;;;45.50;35.25;;;;;15.87;77.53;101601.59;4957425;28;45557;-77
2021/06/23 01:15:09;;;;;;;;;40.25;31.50;;;;;15.87;76.87;101606.03;4956586;28;45473;-78
2021/06/23 01:17:36;;;;;;;;;40.50;32.75;;;;;15.85;76.89;101606.09;4956052;28;45454;-76
2021/06/23 01:20:10;;;;;;;;;48.50;34.50;;;;;15.85;77.71;101600.78;4962161;28;46381;-77
2021/06/23 01:22:39;;;;;;;;;48.25;35.00;;;;;15.85;77.20;101591.97;4964679;28;45967;-76
2021/06/23 01:25:05;;;;;;;;;36.50;30.75;;;;;15.86;77.46;101588.38;4966614;28;45500;-77
2021/06/23 01:27:31;;;;;;;;;37.50;30.75;;;;;15.86;77.64;101591.88;4964352;28;45561;-77
2021/06/23 01:29:57;;;;;;;;;40.00;34.25;;;;;15.89;77.67;101596.19;4962262;28;46048;-77
2021/06/23 01:32:22;;;;;;;;;42.00;35.25;;;;;15.89;77.54;101596.19;4964865;28;45725;-77
2021/06/23 01:34:48;;;;;;;;;46.00;33.75;;;;;15.88;76.94;101598.00;4965380;28;45416;-77
2021/06/23 01:37:13;;;;;;;;;37.75;31.75;;;;;15.84;77.65;101593.78;4963427;28;45493;-75
2021/06/23 01:39:38;;;;;;;;;38.00;33.50;;;;;15.86;77.55;101602.50;4962846;28;46170;-77
2021/06/23 01:42:04;;;;;;;;;44.00;32.00;;;;;15.85;77.38;101606.09;4967589;28;45355;-77
2021/06/23 01:44:29;;;;;;;;;37.50;30.75;;;;;15.86;77.23;101604.28;4965637;28;45440;-77
2021/06/23 01:46:56;;;;;;;;;45.00;32.00;;;;;15.86;77.61;101613.09;4955972;28;45493;-77
2021/06/23 01:49:23;;;;;;;;;44.75;32.00;;;;;15.86;77.61;101605.16;4957544;28;47138;-77
2021/06/23 01:51:48;;;;;;;;;37.75;32.25;;;;;15.86;77.31;101594.53;4956374;28;45516;-77
2021/06/23 01:54:14;;;;;;;;;39.00;31.50;;;;;15.86;77.31;101594.53;4954625;28;45507;-77
2021/06/23 01:56:39;;;;;;;;;40.25;33.25;;;;;15.85;77.42;101589.34;4950552;28;45412;-77
2021/06/23 01:59:04;;;;;;;;;43.50;33.00;;;;;15.84;77.71;101590.28;4969221;28;46556;-77
2021/06/23 02:01:58;;;;;;;;;38.75;32.25;;;;;15.85;77.59;101594.63;4967989;28;45166;-77
2021/06/23 02:04:51;;;;;;;;;45.75;35.00;;;;;15.84;77.38;101583.19;4958918;28;45347;-77
2021/06/23 02:07:31;;;;;;;;;37.50;29.00;;;;;15.83;77.62;101586.78;4952956;28;45472;-77
2021/06/23 02:10:18;;;;;;;;;39.75;34.25;;;;;15.83;77.94;101586.78;4954939;28;46451;-77
2021/06/23 02:13:20;;;;;;;;;43.50;33.75;;;;;15.85;77.56;101586.69;4955584;28;45838;-77
2021/06/23 02:15:47;;;;;;;;;44.50;33.75;;;;;15.83;77.65;101583.25;4955241;28;45281;-77
2021/06/23 02:18:12;;;;;;;;;46.50;34.25;;;;;15.82;77.56;101593.00;4955587;28;45412;-77
2021/06/23 02:20:38;;;;;;;;;40.00;34.75;;;;;15.81;77.83;101585.97;4952784;28;47008;-77
2021/06/23 02:23:09;;;;;;;;;46.50;34.75;;;;;15.79;77.87;101587.00;4955393;28;45609;-77
2021/06/23 02:25:34;;;;;;;;;34.50;30.75;;;;;15.78;77.79;101585.28;4955108;28;45241;-77
2021/06/23 02:28:00;;;;;;;;;39.50;34.75;;;;;15.79;78.06;101593.16;4957073;28;45571;-77
2021/06/23 02:30:25;;;;;;;;;44.25;36.50;;;;;15.82;77.69;101590.34;4955166;28;45966;-77
2021/06/23 02:32:54;;;;;;;;;38.25;31.75;;;;;15.81;77.14;101585.97;4955097;28;45791;-77
2021/06/23 02:35:24;;;;;;;;;33.75;31.50;;;;;15.79;77.43;101587.00;4955465;28;45415;-77
2021/06/23 02:37:50;;;;;;;;;44.00;34.25;;;;;15.77;77.73;101589.75;4939674;28;45519;-77
2021/06/23 02:40:18;;;;;;;;;37.67;32.67;;;;;15.77;77.66;101595.03;4956571;28;45319;-76
2021/06/23 02:42:44;;;;;;;;;47.00;34.25;;;;;15.79;77.76;101593.16;4954844;28;46126;-77
2021/06/23 02:45:11;;;;;;;;;40.75;35.50;;;;;15.82;78.02;101600.09;4953974;28;45436;-77
2021/06/23 02:47:37;;;;;;;;;44.00;31.75;;;;;15.84;77.73;101603.53;4954246;28;45391;-77
2021/06/23 02:50:03;;;;;;;;;42.75;33.75;;;;;15.81;77.75;101596.56;4954899;28;45292;-77
2021/06/23 02:52:29;;;;;;;;;40.75;34.00;;;;;15.82;77.74;101602.75;4955651;28;45506;-77
2021/06/23 02:54:55;;;;;;;;;40.25;34.25;;;;;15.84;77.80;101601.72;4955846;28;45443;-76
2021/06/23 02:57:20;;;;;;;;;40.25;32.00;;;;;15.84;77.79;101598.22;4954916;28;45408;-77
2021/06/23 02:59:47;;;;;;;;;42.25;34.25;;;;;15.86;78.07;101601.63;4954394;28;46854;-77
2021/06/23 03:02:12;;;;;;;;;45.50;35.00;;;;;15.87;77.36;101600.72;4955122;28;45746;-77
2021/06/23 03:04:47;;;;;;;;;42.00;33.00;;;;;15.86;77.46;101599.00;4954664;28;45293;-77
2021/06/23 03:07:13;;;;;;;;;42.50;34.75;;;;;15.86;77.68;101606.94;4956406;28;45543;-77
2021/06/23 03:09:39;;;;;;;;;38.75;32.50;;;;;15.85;77.68;101597.28;4954311;28;48115;-77
2021/06/23 03:12:06;;;;;;;;;42.00;35.00;;;;;15.85;78.07;101598.13;4954673;28;45884;-76
2021/06/23 03:14:31;;;;;;;;;38.25;31.75;;;;;15.87;78.22;101593.63;4954349;28;45446;-76
2021/06/23 03:16:58;;;;;;;;;38.00;30.25;;;;;15.88;78.00;101587.38;4953808;28;45484;-77
2021/06/23 03:19:23;;;;;;;;;36.75;31.00;;;;;15.87;77.36;101585.69;4955277;28;46386;-76
2021/06/23 03:21:49;;;;;;;;;36.50;29.25;;;;;15.86;77.58;101585.75;4955554;28;45301;-77
2021/06/23 03:24:14;;;;;;;;;40.00;31.75;;;;;15.84;77.63;101587.63;4954395;28;45477;-77
2021/06/23 03:26:40;;;;;;;;;40.25;28.25;;;;;15.82;78.00;101587.72;4954060;28;45574;-77
2021/06/23 03:29:33;;;;;;;;;27.75;26.50;;;;;15.82;77.96;101592.16;4954420;28;46267;-77
2021/06/23 03:32:00;;;;;;;;;34.25;29.25;;;;;15.79;77.41;101587.00;4940051;28;45951;-77
2021/06/23 03:34:25;;;;;;;;;27.00;24.25;;;;;15.78;77.90;101590.59;4955642;28;45453;-77
2021/06/23 03:36:51;;;;;;;;;30.75;26.50;;;;;15.79;77.73;101587.00;4955915;28;45443;-77
2021/06/23 03:39:17;;;;;;;;;27.50;23.25;;;;;15.77;77.65;101592.38;4954714;28;46885;-77
2021/06/23 03:41:42;;;;;;;;;34.75;29.00;;;;;15.74;77.95;101589.88;4954125;28;45630;-77
2021/06/23 03:44:08;;;;;;;;;31.00;24.25;;;;;15.75;78.06;101596.88;4954781;28;45435;-77
2021/06/23 03:46:33;;;;;;;;;29.00;27.00;;;;;15.75;78.17;101596.03;4954305;28;46085;-77
2021/06/23 03:48:58;;;;;;;;;34.50;29.75;;;;;15.75;77.95;101588.94;4955024;28;47249;-77
2021/06/23 03:51:25;;;;;;;;;30.00;23.00;;;;;15.73;77.73;101597.91;4954140;28;45361;-77
2021/06/23 03:53:50;;;;;;;;;28.50;26.75;;;;;15.74;77.91;101605.78;4954221;28;45493;-77
2021/06/23 03:56:16;;;;;;;;;30.25;28.00;;;;;15.75;78.22;101599.53;4955430;28;45520;-77
2021/06/23 03:58:42;;;;;;;;;30.25;24.25;;;;;15.76;78.24;101598.59;4957492;28;46224;-78
2021/06/23 04:01:08;;;;;;;;;25.75;19.25;;;;;15.75;77.96;101607.50;4958445;28;45477;-78
2021/06/23 04:03:33;;;;;;;;;29.50;26.25;;;;;15.75;78.09;101604.84;4955123;28;45408;-77
2021/06/23 04:05:59;;;;;;;;;32.00;25.25;;;;;15.76;78.01;101611.00;4958632;28;45353;-78
2021/06/23 04:08:24;;;;;;;;;30.25;25.50;;;;;15.73;78.34;101608.53;4956890;28;50695;-76
2021/06/23 04:10:49;;;;;;;;;29.25;23.25;;;;;15.73;78.24;101608.53;4957095;28;48107;-76
2021/06/23 04:13:15;;;;;;;;;23.25;19.00;;;;;15.74;78.11;101610.22;4958613;28;45702;-77
2021/06/23 04:15:40;;;;;;;;;29.50;23.75;;;;;15.73;78.32;101619.13;4956870;28;45408;-77
2021/06/23 04:18:05;;;;;;;;;27.50;25.00;;;;;15.73;78.20;101609.38;4956789;28;49841;-77
2021/06/23 04:20:31;;;;;;;;;24.75;22.75;;;;;15.74;77.93;101610.22;4958576;28;45393;-77
2021/06/23 04:22:57;;;;;;;;;27.50;25.25;;;;;15.75;78.25;101623.38;4957453;28;45724;-77
2021/06/23 04:25:22;;;;;;;;;28.50;23.50;;;;;15.76;78.26;101622.44;4958333;28;45532;-77
2021/06/23 04:27:47;;;;;;;;;30.50;26.00;;;;;15.78;78.47;101627.69;4954818;28;46079;-77
2021/06/23 04:30:13;;;;;;;;;32.00;29.25;;;;;15.78;78.38;101633.00;4958831;28;45365;-76
2021/06/23 04:32:39;;;;;;;;;27.25;24.75;;;;;15.79;78.50;101632.91;4956284;28;45628;-79
2021/06/23 04:35:07;;;;;;;;;30.00;26.00;;;;;15.82;78.46;101629.25;4956802;28;45501;-77
2021/06/23 04:37:34;;;;;;;;;28.25;23.75;;;;;15.82;78.19;101629.25;4957121;28;46348;-77
2021/06/23 04:40:00;;;;;;;;;28.00;22.00;;;;;15.83;78.02;101637.13;4958153;28;45351;-77
2021/06/23 04:42:26;;;;;;;;;29.00;25.25;;;;;15.87;78.21;101627.25;4957510;28;45710;-77
2021/06/23 04:44:51;;;;;;;;;26.50;22.00;;;;;15.88;78.04;101629.81;4955847;28;45273;-78
2021/06/23 04:47:18;;;;;;;;;31.75;26.00;;;;;15.89;78.44;101638.59;4956013;28;47080;-78
2021/06/23 04:49:43;;;;;;;;;28.00;24.75;;;;;15.87;77.87;101621.94;4955952;28;45462;-78
2021/06/23 04:52:09;;;;;;;;;27.75;22.50;;;;;15.87;77.72;101633.41;4959046;28;45328;-80
2021/06/23 04:54:34;;;;;;;;;27.50;23.75;;;;;15.86;78.19;101636.94;4955695;28;45395;-79
2021/06/23 04:56:59;;;;;;;;;33.25;26.75;;;;;15.84;77.92;101635.34;4957288;28;45646;-79
2021/06/23 04:59:25;;;;;;;;;30.00;25.00;;;;;15.83;78.18;101637.13;4956434;28;45421;-77
2021/06/23 05:01:50;;;;;;;;;25.25;24.00;;;;;15.81;78.02;101633.69;4956400;28;45471;-79
2021/06/23 05:04:15;;;;;;;;;32.00;24.75;;;;;15.79;77.88;101632.91;4958211;28;45520;-79
2021/06/23 05:06:41;;;;;;;;;29.25;22.00;;;;;15.81;77.84;101640.78;4954939;28;46627;-80
2021/06/23 05:09:06;;;;;;;;;27.25;22.75;;;;;15.81;78.28;101640.78;4955435;28;45471;-78
2021/06/23 05:11:34;;;;;;;;;26.00;23.25;;;;;15.82;78.32;101634.56;4955066;28;45574;-79
2021/06/23 05:14:01;;;;;;;;;26.25;23.75;;;;;15.83;78.25;101639.78;4958370;28;45827;-78
2021/06/23 05:16:27;;;;;;;;;28.00;24.00;;;;;15.86;78.12;101644.91;4956736;28;46971;-79
2021/06/23 05:18:54;;;;;;;;;22.25;19.25;;;;;15.85;78.14;101645.00;4956446;28;46035;-79
2021/06/23 05:21:19;;;;;;;;;24.50;24.00;;;;;15.86;78.06;101646.69;4955226;28;45571;-79
2021/06/23 05:23:45;;;;;;;;;26.50;21.25;;;;;15.88;78.30;101652.81;4955714;28;45578;-79
2021/06/23 05:26:11;;;;;;;;;21.75;19.50;;;;;15.91;78.21;101656.13;4955163;28;46307;-78
2021/06/23 05:28:36;;;;;;;;;26.00;22.25;;;;;15.91;78.11;101661.44;4955422;28;45734;-79
2021/06/23 05:31:01;;;;;;;;;26.50;20.00;;;;;15.94;77.84;101657.78;4956051;28;45314;-78
2021/06/23 05:33:27;;;;;;;;;26.50;23.00;;;;;15.96;77.90;101657.69;4956134;28;45388;-79
2021/06/23 05:35:52;;;;;;;;;28.00;22.50;;;;;15.96;77.65;101657.69;4956113;28;45929;-79
2021/06/23 05:38:17;;;;;;;;;22.50;20.00;;;;;15.95;77.83;101659.50;4956401;28;45443;-79
2021/06/23 05:40:43;;;;;;;;;24.25;20.50;;;;;15.94;77.82;101660.44;4955249;28;45617;-79
2021/06/23 05:43:09;;;;;;;;;22.50;17.75;;;;;15.94;77.86;101662.25;4959923;28;45511;-82
2021/06/23 05:45:34;;;;;;;;;24.00;19.00;;;;;15.95;78.19;101661.28;4961042;28;46073;-78
2021/06/23 05:47:59;;;;;;;;;31.00;21.75;;;;;15.94;77.97;101663.09;4962654;28;45746;-78
2021/06/23 05:50:25;;;;;;;;;25.25;21.25;;;;;15.95;77.43;101656.00;4961537;28;45560;-78
2021/06/23 05:52:51;;;;;;;;;25.50;21.25;;;;;15.97;77.38;101657.63;4967782;28;45443;-78
2021/06/23 05:55:21;;;;;;;;;21.75;18.75;;;;;15.96;77.32;101666.50;4964011;28;45397;-78
2021/06/23 05:57:51;;;;;;;;;26.25;21.50;;;;;15.94;77.93;101665.75;4962792;28;45531;-78
2021/06/23 06:00:17;;;;;;;;;24.75;19.50;;;;;15.94;78.01;101670.19;4962530;28;45585;-78
2021/06/23 06:02:43;;;;;;;;;24.75;20.25;;;;;15.94;77.38;101671.03;4962964;28;45542;-78
2021/06/23 06:05:08;;;;;;;;;21.75;19.00;;;;;15.95;77.92;101677.19;4962412;28;45937;-78
2021/06/23 06:07:33;;;;;;;;;28.50;22.00;;;;;15.92;77.28;101683.50;4963337;28;46584;-77
2021/06/23 06:09:59;;;;;;;;;25.50;22.25;;;;;15.89;77.45;101681.88;4964592;28;45368;-77
2021/06/23 06:12:24;;;;;;;;;24.00;19.00;;;;;15.90;77.84;101688.03;4963756;28;45537;-78
2021/06/23 06:14:52;;;;;;;;;19.75;17.00;;;;;15.93;77.54;101692.34;4962934;28;46257;-77
2021/06/23 06:17:17;;;;;;;;;25.75;20.00;;;;;15.90;77.29;101702.13;4962023;28;45499;-79
2021/06/23 06:19:43;;;;;;;;;28.50;23.00;;;;;15.90;77.22;101701.28;4960462;28;45455;-76
2021/06/23 06:22:08;;;;;;;;;23.75;20.25;;;;;15.87;76.99;101699.66;4964576;28;45452;-79
2021/06/23 06:24:33;;;;;;;;;28.50;23.75;;;;;15.84;77.36;101706.91;4963213;28;46156;-78
2021/06/23 06:26:59;;;;;;;;;23.25;22.00;;;;;15.85;77.30;101700.66;4957397;28;45937;-77
2021/06/23 06:29:24;;;;;;;;;27.75;25.75;;;;;15.86;77.41;101703.22;4955540;28;45427;-77
2021/06/23 06:31:49;;;;;;;;;28.50;23.25;;;;;15.87;77.25;101704.97;4955415;28;45348;-78
2021/06/23 06:34:15;;;;;;;;;30.25;26.50;;;;;15.91;76.98;101711.81;4966039;28;45452;-78
2021/06/23 06:36:40;;;;;;;;;28.00;25.75;;;;;15.93;77.15;101711.75;4958169;28;45320;-78
2021/06/23 06:39:06;;;;;;;;;26.75;25.25;;;;;15.96;76.78;101718.69;4955304;28;45345;-77
2021/06/23 06:41:31;;;;;;;;;31.25;24.25;;;;;15.93;76.52;101714.41;4954531;28;45301;-77
2021/06/23 06:43:56;;;;;;;;;24.00;21.50;;;;;15.93;76.78;101719.72;4954376;28;46212;-78
2021/06/23 06:46:22;;;;;;;;;21.50;20.50;;;;;15.93;76.77;101711.75;4968364;28;46969;-77
2021/06/23 06:48:47;;;;;;;;;24.50;21.75;;;;;15.95;76.62;101711.66;4966583;28;45496;-81
2021/06/23 06:51:12;;;;;;;;;27.75;25.25;;;;;15.96;76.51;101722.19;4962587;28;45406;-77
2021/06/23 06:53:38;;;;;;;;;27.75;24.50;;;;;15.97;76.67;101720.38;4958660;28;45510;-77
2021/06/23 06:56:03;;;;;;;;;30.00;26.75;;;;;15.99;76.49;101721.19;4954726;28;45324;-77
2021/06/23 06:58:28;;;;;;;;;23.50;19.25;;;;;16.03;76.65;101725.41;4954991;28;45512;-77
2021/06/23 07:00:54;;;;;;;;;30.00;21.50;;;;;16.05;76.37;101723.53;4954845;28;45490;-77
2021/06/23 07:03:19;;;;;;;;;31.25;24.25;;;;;16.06;76.07;101722.59;4954450;28;46709;-77
2021/06/23 07:05:44;;;;;;;;;31.25;26.50;;;;;16.05;76.28;101727.03;4954064;28;55120;-77
2021/06/23 07:08:10;;;;;;;;;28.75;24.75;;;;;16.04;76.06;101732.44;4952363;28;45485;-77
2021/06/23 07:10:35;;;;;;;;;32.25;26.00;;;;;16.03;76.06;101736.03;4954055;28;45540;-76
2021/06/23 07:13:01;;;;;;;;;33.00;28.75;;;;;16.05;76.19;101732.34;4938234;28;48689;-77
2021/06/23 07:15:27;;;;;;;;;43.75;36.75;;;;;16.10;76.41;101729.47;4956647;28;45463;-78
2021/06/23 07:17:52;;;;;;;;;28.00;20.75;;;;;16.15;76.43;101733.59;4953740;28;45538;-77
2021/06/23 07:20:18;;;;;;;;;21.25;19.50;;;;;16.21;76.22;101726.25;4954616;28;45330;-77
2021/06/23 07:22:44;;;;;;;;;25.00;22.25;;;;;16.25;75.73;101734.00;4953993;28;46172;-76
2021/06/23 07:25:10;;;;;;;;;27.00;22.75;;;;;16.26;75.84;101735.69;4967689;28;45399;-77
2021/06/23 07:27:35;;;;;;;;;25.25;20.75;;;;;16.29;76.16;101737.34;4955354;28;45367;-77
2021/06/23 07:30:02;;;;;;;;;25.50;21.00;;;;;16.32;76.11;101737.19;4952517;28;49315;-77
2021/06/23 07:32:34;;;;;;;;;27.50;21.75;;;;;16.32;75.56;101738.03;4949467;28;46247;-77
2021/06/23 07:37:43;;;;;;;;;29.25;25.25;;;;;16.37;76.31;101743.97;4954131;28;45246;-77
2021/06/23 07:40:10;;;;;;;;;32.50;28.00;;;;;16.39;75.92;101747.41;4956012;28;45424;-77
2021/06/23 07:42:35;;;;;;;;;34.50;26.75;;;;;16.39;75.83;101742.13;4954366;28;46522;-77
2021/06/23 07:45:03;;;;;;;;;63.50;51.00;;;;;16.38;76.50;101758.09;4953368;28;45692;-78
2021/06/23 07:47:31;;;;;;;;;171.00;153.50;;;;;16.37;76.10;101751.06;4953736;28;45439;-77
2021/06/23 07:49:57;;;;;;;;;32.75;25.00;;;;;16.37;76.01;101743.97;4955450;28;45564;-77
2021/06/23 07:52:48;;;;;;;;;30.75;25.00;;;;;16.37;75.97;101748.41;4954950;28;47097;-77
2021/06/23 07:55:43;;;;;;;;;31.75;26.50;;;;;16.42;76.39;101741.94;4950364;28;45487;-77
2021/06/23 08:09:14;;;;;;;;;37.50;29.75;;;;;16.69;75.70;101750.25;4970180;28;45535;-77
2021/06/23 08:11:41;;;;;;;;;29.75;27.25;;;;;16.78;75.04;101748.09;4970554;28;46409;-77
2021/06/23 08:14:06;;;;;;;;;34.50;29.00;;;;;16.86;75.05;101749.44;4976434;28;46128;-76
2021/06/23 08:16:33;;;;;;;;;26.75;25.50;;;;;16.93;74.86;101753.47;4970576;28;45353;-77
2021/06/23 08:18:59;;;;;;;;;37.75;29.75;;;;;16.98;74.88;101750.56;4971939;28;45843;-77
2021/06/23 08:21:24;;;;;;;;;32.00;26.25;;;;;17.03;74.13;101745.00;4971364;28;45495;-77
2021/06/23 08:23:50;;;;;;;;;30.50;27.25;;;;;17.08;73.73;101737.66;4971023;28;46063;-77
2021/06/23 08:26:16;;;;;;;;;29.50;26.75;;;;;17.13;74.08;101749.75;4970536;28;45493;-77
2021/06/23 08:28:41;;;;;;;;;30.25;28.00;;;;;17.20;74.09;101750.25;4971011;28;45587;-76
2021/06/23 08:31:06;;;;;;;;;33.00;26.00;;;;;17.25;73.79;101750.88;4971654;28;45561;-76
2021/06/23 08:33:32;;;;;;;;;31.75;27.75;;;;;17.33;73.55;101745.13;4970924;28;46198;-76
2021/06/23 08:35:57;;;;;;;;;32.00;25.00;;;;;17.41;73.26;101741.09;4971239;28;45582;-77
2021/06/23 08:38:23;;;;;;;;;24.75;22.50;;;;;17.54;73.62;101745.72;4970471;28;45726;-77
2021/06/23 08:40:49;;;;;;;;;33.00;25.75;;;;;17.65;72.73;101741.53;4971047;28;45682;-77
2021/06/23 08:43:17;;;;;;;;;85.75;71.75;;;;;17.82;72.70;101737.09;4986447;28;45353;-79
2021/06/23 08:45:43;;;;;;;;;62.50;49.75;;;;;17.93;72.59;101739.97;4964552;28;45752;-78
2021/06/23 08:48:10;;;;;;;;;38.25;32.25;;;;;17.93;72.20;101743.50;4956458;28;45632;-77
2021/06/23 08:50:36;;;;;;;;;34.75;29.50;;;;;17.97;71.78;101742.38;4956556;28;45508;-77
2021/06/23 08:53:01;;;;;;;;;27.00;26.75;;;;;18.12;71.91;101737.97;4958337;28;47200;-77
2021/06/23 08:55:26;;;;;;;;;35.75;29.00;;;;;18.19;71.66;101749.97;4957864;28;45482;-76
2021/06/23 08:57:52;;;;;;;;;36.00;33.00;;;;;18.17;71.29;101743.88;4956278;28;45516;-76
2021/06/23 09:00:21;;;;;;;;;32.25;30.75;;;;;18.17;71.28;101753.66;4956303;28;45528;-77
2021/06/23 09:02:47;;;;;;;;;29.25;26.25;;;;;18.11;70.98;101744.22;4956013;28;49680;-79
2021/06/23 09:05:15;;;;;;;;;39.25;33.25;;;;;18.10;71.09;101752.28;4956988;28;45292;-83
2021/06/23 09:07:53;;;;;;;;;40.25;33.25;;;;;18.10;71.14;101753.16;4954125;28;45533;-77
2021/06/23 09:10:18;;;;;;;;;33.50;31.00;;;;;18.09;70.77;101746.13;4954310;28;45404;-79
2021/06/23 09:13:03;;;;;;;;;30.00;23.00;;;;;18.10;70.63;101758.47;4955790;28;45482;-78
2021/06/23 09:15:52;;;;;;;;;29.50;25.25;;;;;18.14;70.53;101753.84;4955579;28;45908;-81
2021/06/23 09:18:34;;;;;;;;;29.75;23.25;;;;;18.17;70.91;101753.66;4953722;28;45360;-80
2021/06/23 09:21:05;;;;;;;;;26.75;25.75;;;;;18.14;70.52;101760.00;4957035;28;45392;-77
2021/06/23 09:23:44;;;;;;;;;31.50;27.00;;;;;18.13;70.46;101744.16;4955745;28;46080;-76
2021/06/23 09:26:22;;;;;;;;;29.25;24.50;;;;;18.16;70.52;101755.44;4943639;28;45719;-76
2021/06/23 09:29:12;;;;;;;;;27.00;25.25;;;;;18.31;70.31;101750.19;4956457;28;45832;-75
2021/06/23 09:32:04;;;;;;;;;27.25;26.25;;;;;18.40;70.11;101750.50;4954934;28;45756;-76
2021/06/23 09:34:38;;;;;;;;;29.00;27.50;;;;;18.46;70.09;101754.59;4956431;28;46435;-76
2021/06/23 09:37:25;;;;;;;;;27.25;23.75;;;;;18.56;69.72;101752.25;4956577;28;45424;-76
2021/06/23 09:40:10;;;;;;;;;28.25;25.00;;;;;18.69;69.67;101745.25;4956373;28;45696;-76
2021/06/23 09:42:44;;;;;;;;;27.75;26.00;;;;;18.87;69.02;101749.44;4950538;28;45478;-76
2021/06/23 09:45:12;;;;;;;;;35.00;29.25;;;;;18.95;68.97;101751.63;4955006;28;45872;-76
2021/06/23 09:47:38;;;;;;;;;27.75;24.25;;;;;18.93;68.55;101757.06;4956526;28;45724;-75
2021/06/23 09:50:18;;;;;;;;;30.25;26.50;;;;;18.91;68.57;101750.13;4953292;28;45598;-75
2021/06/23 09:53:08;;;;;;;;;32.50;27.75;;;;;18.92;68.50;101754.50;4953804;28;45618;-76
2021/06/23 09:55:48;;;;;;;;;31.25;25.00;;;;;18.94;68.68;101749.91;4953675;28;46400;-75
2021/06/23 09:58:24;;;;;;;;;24.75;22.75;;;;;18.99;68.31;101756.66;4945586;28;45404;-76
2021/06/23 10:01:04;;;;;;;;;30.25;25.75;;;;;19.02;68.54;101760.97;4955870;28;45571;-76
2021/06/23 10:03:50;;;;;;;;;34.25;26.50;;;;;19.02;68.62;101756.50;4955842;28;45453;-75
2021/06/23 10:06:31;;;;;;;;;27.75;23.50;;;;;18.99;68.25;101756.66;4954536;28;47308;-77
2021/06/23 10:09:27;;;;;;;;;27.00;25.75;;;;;18.93;68.26;101758.88;4956437;28;45829;-76
2021/06/23 10:11:55;;;;;;;;;33.75;28.75;;;;;18.86;68.26;101753.06;4953113;28;45462;-76
2021/06/23 10:14:22;;;;;;;;;31.75;28.00;;;;;18.86;68.21;101755.72;4955803;28;45487;-76
2021/06/23 10:16:52;;;;;;;;;27.00;24.25;;;;;18.85;68.30;101759.34;4954875;28;46955;-76
2021/06/23 10:19:18;;;;;;;;;25.00;22.25;;;;;18.77;68.18;101758.94;4956708;28;45334;-76
2021/06/23 10:21:45;;;;;;;;;27.00;20.50;;;;;18.74;68.60;101764.44;4955081;28;45451;-76
2021/06/23 10:24:12;;;;;;;;;24.00;24.00;;;;;18.72;68.52;101756.56;4954480;28;45466;-76
2021/06/23 10:26:46;;;;;;;;;27.50;24.00;;;;;18.68;68.65;101755.03;4954391;28;45452;-76
2021/06/23 10:29:19;;;;;;;;;29.25;25.75;;;;;18.76;68.70;101768.75;4953862;28;45841;-76
2021/06/23 10:31:46;;;;;;;;;29.00;27.75;;;;;18.86;68.99;101762.88;4955194;28;45534;-76
2021/06/23 10:34:11;;;;;;;;;31.75;27.25;;;;;18.95;68.94;101767.59;4956286;28;45645;-76
2021/06/23 10:36:37;;;;;;;;;33.25;29.00;;;;;18.98;67.92;101762.09;4953474;28;45991;-75
2021/06/23 10:39:04;;;;;;;;;32.25;27.00;;;;;19.01;68.39;101768.09;4954334;28;45570;-76
2021/06/23 10:41:37;;;;;;;;;27.50;26.25;;;;;19.08;68.26;101765.06;4955229;28;45537;-75
2021/06/23 10:44:22;;;;;;;;;35.00;30.25;;;;;19.20;68.26;101767.81;4953439;28;45357;-76
2021/06/23 10:46:56;;;;;;;;;24.50;24.25;;;;;19.34;68.38;101766.94;4955059;28;46347;-75
2021/06/23 10:50:00;;;;;;;;;29.25;25.25;;;;;19.47;67.32;101759.88;4952867;28;45899;-77
2021/06/23 10:52:30;;;;;;;;;27.00;25.75;;;;;19.58;67.68;101771.69;4954801;28;45546;-77
2021/06/23 10:55:00;;;;;;;;;29.50;25.75;;;;;19.60;67.32;101777.78;4959177;28;45686;-77
2021/06/23 10:57:31;;;;;;;;;28.25;25.75;;;;;19.53;67.00;101774.63;4957079;28;47027;-76
2021/06/23 11:00:00;;;;;;;;;33.50;26.00;;;;;19.43;66.74;101778.84;4946059;28;45660;-77
2021/06/23 11:02:35;;;;;;;;;28.50;27.50;;;;;19.41;66.98;101775.41;4953995;28;45607;-77
2021/06/23 11:05:01;;;;;;;;;30.25;27.25;;;;;19.41;66.81;101780.72;4951304;28;45595;-78
2021/06/23 11:07:33;;;;;;;;;30.25;26.25;;;;;19.42;66.73;101783.31;4952319;28;45609;-77
2021/06/23 11:10:13;;;;;;;;;30.50;27.75;;;;;19.43;66.86;101784.16;4951945;28;45496;-77
2021/06/23 11:12:45;;;;;;;;;30.00;27.25;;;;;19.44;67.21;101780.53;4951158;28;45424;-77
2021/06/23 11:15:11;;;;;;;;;26.25;25.00;;;;;19.37;67.16;101788.09;4952105;28;45478;-78
2021/06/23 11:17:37;;;;;;;;;30.00;28.75;;;;;19.29;67.02;101798.34;4949709;28;46351;-78
2021/06/23 11:20:24;;;;;;;;;28.75;24.75;;;;;19.19;67.31;101805.22;4932124;28;45999;-79
2021/06/23 11:22:54;;;;;;;;;40.50;31.00;;;;;19.14;67.20;101802.81;4917901;28;45380;-78
2021/06/23 11:25:32;;;;;;;;;39.75;32.00;;;;;19.11;67.42;101804.84;4926487;28;45478;-78
2021/06/23 11:28:11;;;;;;;;;35.50;31.25;;;;;19.11;67.27;101805.69;4932862;28;46109;-78
2021/06/23 11:30:52;;;;;;;;;33.25;30.75;;;;;19.08;67.41;101802.34;4935363;28;45416;-78